Airfield :
LOGIN :

Register | Disclaimer

   EN    FR    IT 

 










Legend :    VFR   Marginal VFR   IFR   Intensive IFR   Very Intensive IFR
Visi :
Ceiling :
>= 8 km
>= 3000ft
5 to 8 km
1000 to 3000 ft
1500m to 5 km
500 to 1000 ft
800 to 1500m
200 to 500 ft
< 800m
< 200 ft
Symbols :   Thunderstorms  Fog  Heavy snow  Heavy precipitations  Wind > 20 kt
SIGMETs :     Misc.  Thunderstorms  Icing  Turbulence  Mountain Waves  Volcanic Ashes






- Airport Elevation : 359 ft
- IATA code : BVA


LFOB - Beauvais

CURRENT METAR :
  • 100100Z AUTO 31003KT CAVOK 25/15 Q1013 TEMPO VRB20G35KT 3000 TSRA BKN100CB

EXPIRED METARs :
  • 100030Z AUTO 31009KT CAVOK 24/15 Q1012 TEMPO VRB20G35KT 3000 TSRA BKN100CB
  • 100000Z AUTO 25003KT CAVOK 25/15 Q1013 TEMPO VRB20G35KT 3000 TSRA BKN100CB
  • 092330Z AUTO 20010KT CAVOK 26/15 Q1013 TEMPO VRB20G35KT 3000 TSRA BKN100CB
  • 092300Z AUTO 19012KT 9999 ///CB 27/16 Q1014 TEMPO VRB15G25KT 3000 TSRA
  • 092230Z AUTO 18016KT 9999 VCTS ///CB 27/16 Q1014 TEMPO VRB15G25KT 3000 TSRA

TAF TAF LFOB
Valid from the 10 at 00:00 until the 11 at 00:00 UTC


092300Z 1000/1024 VRB02KT CAVOK
TEMPO 1000/1018 VRB20G35KT 3000 TSRA BKN100CB
ATIS : +33 3 44 11 49 28



MET'MAP, your aeronautical weather chart ! - Copyright ORBIFLY December 2007 - Disclaimer

ORBIFLY MET'MAP TEAM :

Programming & Development : Alexandra Zaïnal
Concept & original design : Baudouin d'Aumeries
Assistance for programming : Marc-Olivier Méhu
Technical & hardware support : Manuel Goepfert

Contact : metmap@orbifly.com




SOURCES & CREDITS :

   NOAA